createdAt,value
2022-08-29T00:02:12.009Z,15.30
2022-08-29T00:04:40.183Z,15.30
2022-08-29T00:07:08.256Z,15.30
2022-08-29T00:09:36.313Z,15.20
2022-08-29T00:12:07.041Z,15.30
2022-08-29T00:14:35.328Z,15.20
2022-08-29T00:17:05.075Z,15.20
2022-08-29T00:19:33.180Z,15.20
2022-08-29T00:22:01.200Z,15.10
2022-08-29T00:24:29.348Z,15.10
2022-08-29T00:27:00.211Z,15.10
2022-08-29T00:29:28.519Z,15.10
2022-08-29T00:31:56.565Z,15.10
2022-08-29T00:34:26.023Z,15.10
2022-08-29T00:36:54.897Z,15.10
2022-08-29T00:39:23.090Z,15.10
2022-08-29T00:41:51.516Z,15.00
2022-08-29T00:44:19.802Z,15.00
2022-08-29T00:46:53.818Z,15.00
2022-08-29T00:49:33.446Z,15.00
2022-08-29T00:52:06.536Z,14.90
2022-08-29T00:54:35.926Z,14.90
2022-08-29T00:57:04.421Z,14.90
2022-08-29T00:59:35.697Z,14.90
2022-08-29T01:02:05.204Z,14.80
2022-08-29T01:04:35.357Z,14.90
2022-08-29T01:07:03.446Z,14.90
2022-08-29T01:09:31.902Z,14.90
2022-08-29T01:12:17.495Z,14.80
2022-08-29T01:14:49.784Z,14.80
2022-08-29T01:17:22.202Z,14.80
2022-08-29T01:19:57.172Z,14.80
2022-08-29T01:22:44.611Z,14.80
2022-08-29T01:25:19.133Z,14.80
2022-08-29T01:27:53.271Z,14.70
2022-08-29T01:30:21.378Z,14.80
2022-08-29T01:32:49.446Z,14.60
2022-08-29T01:35:17.429Z,14.60
2022-08-29T01:37:46.961Z,14.60
2022-08-29T01:40:16.561Z,14.60
2022-08-29T01:42:44.666Z,14.60
2022-08-29T01:45:13.128Z,14.60
2022-08-29T01:47:41.437Z,14.60
2022-08-29T01:50:12.740Z,14.60
2022-08-29T01:52:42.716Z,14.60
2022-08-29T01:55:11.398Z,14.60
2022-08-29T01:57:41.537Z,14.60
2022-08-29T02:00:13.011Z,14.60
2022-08-29T02:02:43.002Z,14.60
2022-08-29T02:05:10.981Z,14.60
2022-08-29T02:07:38.994Z,14.60
2022-08-29T02:10:08.275Z,14.60
2022-08-29T02:12:36.910Z,14.60
2022-08-29T02:15:08.013Z,14.50
2022-08-29T02:17:36.356Z,14.40
2022-08-29T02:20:08.990Z,14.40
2022-08-29T02:22:38.035Z,14.30
2022-08-29T02:25:23.769Z,14.30
2022-08-29T02:27:52.367Z,14.30
2022-08-29T02:30:22.166Z,14.40
2022-08-29T02:32:50.550Z,14.30
2022-08-29T02:35:19.460Z,14.30
2022-08-29T02:37:47.479Z,14.30
2022-08-29T02:40:15.756Z,14.30
2022-08-29T02:42:43.782Z,14.20
2022-08-29T02:45:12.449Z,14.20
2022-08-29T02:47:43.221Z,14.20
2022-08-29T02:50:12.087Z,14.10
2022-08-29T02:52:40.822Z,14.20
2022-08-29T02:55:11.593Z,14.10
2022-08-29T02:57:39.679Z,14.10
2022-08-29T03:00:10.629Z,14.10
2022-08-29T03:02:38.632Z,14.10
2022-08-29T03:05:08.962Z,14.10
2022-08-29T03:07:37.385Z,14.00
2022-08-29T03:10:06.739Z,14.00
2022-08-29T03:12:34.826Z,14.00
2022-08-29T03:15:03.180Z,14.00
2022-08-29T03:17:33.428Z,14.00
2022-08-29T03:20:03.090Z,13.90
2022-08-29T03:22:32.553Z,13.90
2022-08-29T03:25:02.786Z,13.90
2022-08-29T03:27:31.279Z,14.00
2022-08-29T03:29:59.686Z,13.90
2022-08-29T03:32:29.665Z,14.00
2022-08-29T03:34:57.833Z,13.90
2022-08-29T03:37:27.322Z,13.80
2022-08-29T03:39:57.082Z,13.80
2022-08-29T03:42:25.338Z,13.80
2022-08-29T03:44:53.509Z,13.80
2022-08-29T03:47:21.858Z,13.80
2022-08-29T03:49:50.063Z,13.80
2022-08-29T03:52:18.229Z,13.80
2022-08-29T03:54:49.062Z,13.70
2022-08-29T03:57:18.605Z,13.80
2022-08-29T03:59:48.224Z,13.80
2022-08-29T04:02:22.402Z,13.70
2022-08-29T04:05:16.477Z,13.70
2022-08-29T04:07:48.170Z,13.70
2022-08-29T04:10:19.812Z,13.70
2022-08-29T04:12:54.294Z,13.70
2022-08-29T04:15:23.306Z,13.60
2022-08-29T04:17:54.106Z,13.60
2022-08-29T04:20:25.339Z,13.60
2022-08-29T04:22:55.187Z,13.60
2022-08-29T04:25:27.279Z,13.60
2022-08-29T04:27:57.518Z,13.70
2022-08-29T04:30:28.104Z,13.60
2022-08-29T04:32:56.481Z,13.70
2022-08-29T04:35:27.882Z,13.70
2022-08-29T04:37:56.275Z,13.70
2022-08-29T04:40:24.690Z,13.70
2022-08-29T04:42:52.941Z,13.70
2022-08-29T04:45:25.085Z,13.80
2022-08-29T04:47:53.472Z,13.90
2022-08-29T04:50:24.679Z,14.00
2022-08-29T04:52:56.790Z,14.10
2022-08-29T04:55:26.332Z,14.10
2022-08-29T04:57:57.090Z,14.20
2022-08-29T05:00:29.500Z,14.20
2022-08-29T05:02:59.444Z,14.30
2022-08-29T05:05:27.813Z,14.30
2022-08-29T05:07:55.823Z,14.30
2022-08-29T05:10:24.237Z,14.30
2022-08-29T05:12:52.216Z,14.50
2022-08-29T05:15:20.498Z,14.50
2022-08-29T05:17:49.902Z,14.60
2022-08-29T05:20:18.026Z,14.60
2022-08-29T05:22:45.992Z,14.50
2022-08-29T05:25:18.212Z,14.80
2022-08-29T05:27:47.845Z,14.80
2022-08-29T05:30:16.411Z,14.80
2022-08-29T05:33:04.291Z,14.70
2022-08-29T05:35:32.384Z,14.60
2022-08-29T05:38:11.477Z,14.60
2022-08-29T05:40:42.915Z,14.70
2022-08-29T05:43:11.645Z,14.80
2022-08-29T05:45:40.514Z,14.80
2022-08-29T05:48:10.997Z,14.80
2022-08-29T05:50:41.811Z,14.90
2022-08-29T05:53:09.895Z,15.00
2022-08-29T05:55:40.724Z,15.10
2022-08-29T05:58:08.813Z,15.20
2022-08-29T06:00:39.558Z,15.30
2022-08-29T06:03:10.909Z,15.30
2022-08-29T06:05:39.415Z,15.40
2022-08-29T06:08:08.215Z,15.40
2022-08-29T06:10:41.183Z,15.50
2022-08-29T06:13:09.047Z,15.60
2022-08-29T06:15:36.998Z,15.70
2022-08-29T06:18:05.641Z,15.80
2022-08-29T06:20:35.051Z,15.80
2022-08-29T06:23:03.058Z,15.80
2022-08-29T06:25:39.941Z,15.80
2022-08-29T06:28:08.664Z,15.80
2022-08-29T06:30:36.868Z,15.90
2022-08-29T06:33:05.108Z,16.00
2022-08-29T06:35:34.446Z,16.00
2022-08-29T06:38:02.405Z,16.00
2022-08-29T06:40:32.959Z,16.00
2022-08-29T06:43:01.126Z,16.10
2022-08-29T06:45:29.030Z,16.00
2022-08-29T06:47:57.054Z,16.00
2022-08-29T06:50:25.028Z,16.00
2022-08-29T06:52:55.670Z,16.10
2022-08-29T06:55:24.264Z,16.00
2022-08-29T06:57:52.390Z,16.10
2022-08-29T07:00:23.847Z,16.10
2022-08-29T07:02:53.036Z,16.20
2022-08-29T07:05:21.712Z,16.30
2022-08-29T07:07:54.091Z,16.30
2022-08-29T07:10:22.946Z,16.40
2022-08-29T07:12:51.887Z,16.50
2022-08-29T07:15:20.538Z,16.60
2022-08-29T07:17:49.312Z,16.70
2022-08-29T07:20:19.784Z,16.70
2022-08-29T07:22:51.358Z,16.80
2022-08-29T07:25:22.143Z,16.80
2022-08-29T07:27:52.057Z,16.80
2022-08-29T07:30:21.691Z,16.80
2022-08-29T07:32:50.321Z,16.80
2022-08-29T07:35:29.609Z,16.80
2022-08-29T07:37:59.409Z,16.80
2022-08-29T07:40:29.186Z,16.80
2022-08-29T07:42:57.201Z,16.70
2022-08-29T07:45:25.172Z,16.70
2022-08-29T07:47:53.178Z,16.60
2022-08-29T07:50:23.749Z,16.60
2022-08-29T07:52:52.493Z,16.70
2022-08-29T07:55:21.901Z,16.70
2022-08-29T07:57:53.253Z,16.70
2022-08-29T08:00:21.998Z,16.70
2022-08-29T08:02:52.435Z,16.70
2022-08-29T08:05:23.894Z,16.80
2022-08-29T08:07:55.374Z,17.00
2022-08-29T08:10:24.615Z,17.10
2022-08-29T08:12:53.950Z,17.00
2022-08-29T08:15:22.817Z,17.00
2022-08-29T08:17:50.766Z,17.10
2022-08-29T08:20:18.868Z,17.00
2022-08-29T08:22:46.948Z,17.10
2022-08-29T08:25:17.101Z,17.30
2022-08-29T08:27:45.215Z,17.50
2022-08-29T08:30:15.650Z,17.80
2022-08-29T08:32:46.900Z,17.90
2022-08-29T08:35:19.670Z,17.80
2022-08-29T08:37:49.415Z,17.70
2022-08-29T08:40:28.724Z,17.80
2022-08-29T08:43:00.379Z,17.80
2022-08-29T08:45:35.027Z,17.70
2022-08-29T08:48:08.002Z,17.50
2022-08-29T08:50:44.497Z,17.60
2022-08-29T08:53:19.343Z,17.50
2022-08-29T08:55:49.816Z,17.50
2022-08-29T08:58:29.257Z,17.50
2022-08-29T09:01:02.485Z,17.60
2022-08-29T09:03:58.278Z,17.80
2022-08-29T09:06:43.636Z,18.00
2022-08-29T09:09:22.234Z,18.10
2022-08-29T09:12:01.266Z,18.10
2022-08-29T09:14:44.357Z,18.10
2022-08-29T09:17:43.466Z,18.00
2022-08-29T09:20:15.450Z,18.20
2022-08-29T09:22:49.444Z,18.40
2022-08-29T09:25:17.610Z,18.60
2022-08-29T09:27:45.861Z,18.60
2022-08-29T09:30:18.151Z,18.60
2022-08-29T09:33:00.753Z,18.70
2022-08-29T09:35:34.518Z,19.00
2022-08-29T09:38:04.896Z,19.00
2022-08-29T09:40:53.525Z,19.10
2022-08-29T09:43:28.411Z,19.30
2022-08-29T09:46:19.071Z,19.20
2022-08-29T09:48:50.422Z,19.10
2022-08-29T09:51:24.955Z,19.00
2022-08-29T09:53:54.290Z,19.10
2022-08-29T09:56:27.351Z,19.30
2022-08-29T09:59:02.670Z,19.30
2022-08-29T10:01:32.305Z,19.20
2022-08-29T10:04:08.268Z,19.20
2022-08-29T10:06:45.025Z,19.30
2022-08-29T10:09:26.487Z,19.30
2022-08-29T10:12:00.521Z,19.50
2022-08-29T10:14:35.758Z,19.40
2022-08-29T10:17:22.846Z,19.50
2022-08-29T10:19:52.388Z,19.70
2022-08-29T10:22:29.855Z,19.80
2022-08-29T10:25:06.838Z,19.70
2022-08-29T10:27:44.118Z,19.80
2022-08-29T10:30:15.678Z,19.80
2022-08-29T10:33:04.742Z,19.90
2022-08-29T10:35:39.947Z,20.00
2022-08-29T10:38:17.844Z,20.00
2022-08-29T10:40:51.479Z,19.90
2022-08-29T10:43:34.842Z,19.70
2022-08-29T10:46:12.910Z,19.80
2022-08-29T10:48:49.005Z,19.80
2022-08-29T10:51:27.045Z,19.80
2022-08-29T10:54:05.398Z,19.80
2022-08-29T10:56:40.212Z,19.80
2022-08-29T10:59:18.239Z,19.70
2022-08-29T11:01:53.360Z,19.90
2022-08-29T11:04:28.455Z,20.00
2022-08-29T11:07:07.053Z,20.00
2022-08-29T11:09:40.316Z,20.00
2022-08-29T11:12:17.638Z,20.20
2022-08-29T11:14:52.514Z,20.40
2022-08-29T11:17:24.925Z,20.40
2022-08-29T11:20:02.999Z,20.50
2022-08-29T11:22:37.045Z,20.70
2022-08-29T11:25:10.316Z,20.50
2022-08-29T11:27:53.681Z,20.50
2022-08-29T11:30:28.083Z,20.40
2022-08-29T11:33:07.198Z,20.30
2022-08-29T11:35:45.633Z,20.10
2022-08-29T11:38:44.646Z,20.20
2022-08-29T11:41:32.784Z,20.00
2022-08-29T11:44:14.037Z,20.10
2022-08-29T11:46:49.437Z,20.20
2022-08-29T11:49:45.826Z,20.50
2022-08-29T11:52:22.599Z,20.70
2022-08-29T11:55:16.082Z,20.80
2022-08-29T11:57:59.345Z,20.80
2022-08-29T12:00:52.973Z,20.80
2022-08-29T12:03:55.492Z,20.90
2022-08-29T12:06:56.813Z,20.80
2022-08-29T12:09:48.898Z,21.10
2022-08-29T12:12:37.016Z,21.10
2022-08-29T12:15:43.865Z,21.00
2022-08-29T12:18:45.201Z,21.10
2022-08-29T12:21:44.201Z,21.40
2022-08-29T12:24:33.568Z,21.40
2022-08-29T12:27:02.192Z,21.40
2022-08-29T12:29:41.170Z,21.30
2022-08-29T12:32:46.105Z,21.50
2022-08-29T12:35:39.762Z,21.60
2022-08-29T12:38:26.754Z,21.60
2022-08-29T12:41:09.054Z,21.40
2022-08-29T12:43:42.623Z,21.30
2022-08-29T12:46:21.941Z,21.30
2022-08-29T12:48:57.514Z,21.30
2022-08-29T12:51:37.082Z,21.40
2022-08-29T12:54:08.889Z,21.30
2022-08-29T12:56:48.906Z,21.30
2022-08-29T12:59:20.127Z,21.70
2022-08-29T13:01:55.887Z,21.80
2022-08-29T13:04:26.080Z,21.90
2022-08-29T13:07:03.136Z,21.90
2022-08-29T13:09:33.639Z,22.00
2022-08-29T13:12:11.373Z,22.20
2022-08-29T13:14:51.455Z,21.90
2022-08-29T13:17:23.771Z,22.00
2022-08-29T13:20:34.396Z,22.00
2022-08-29T13:23:11.317Z,21.90
2022-08-29T13:25:47.111Z,21.90
2022-08-29T13:28:24.967Z,21.90
2022-08-29T13:31:24.905Z,21.90
2022-08-29T13:34:26.814Z,21.90
2022-08-29T13:37:02.475Z,22.00
2022-08-29T13:39:50.011Z,22.10
2022-08-29T13:42:35.946Z,22.20
2022-08-29T13:45:15.502Z,22.10
2022-08-29T13:47:59.859Z,22.00
2022-08-29T13:50:30.115Z,22.00
2022-08-29T13:52:59.736Z,22.00
2022-08-29T13:55:29.208Z,22.00
2022-08-29T13:57:57.422Z,21.90
2022-08-29T14:00:34.766Z,22.00
2022-08-29T14:03:06.552Z,22.00
2022-08-29T14:05:37.559Z,22.20
2022-08-29T14:08:06.996Z,22.50
2022-08-29T14:10:35.636Z,22.90
2022-08-29T14:13:07.236Z,23.30
2022-08-29T14:15:35.457Z,23.30
2022-08-29T14:18:04.754Z,23.20
2022-08-29T14:20:32.857Z,22.90
2022-08-29T14:23:02.253Z,23.00
2022-08-29T14:25:30.464Z,23.00
2022-08-29T14:27:58.499Z,23.20
2022-08-29T14:30:26.648Z,23.20
2022-08-29T14:32:54.845Z,22.90
2022-08-29T14:35:26.621Z,22.80
2022-08-29T14:38:02.477Z,22.70
2022-08-29T14:40:32.196Z,22.80
2022-08-29T14:43:01.517Z,22.80
2022-08-29T14:45:31.172Z,22.70
2022-08-29T14:48:00.146Z,22.60
2022-08-29T14:50:28.401Z,22.70
2022-08-29T14:52:56.459Z,22.70
2022-08-29T14:55:26.201Z,22.70
2022-08-29T14:57:54.441Z,22.80
2022-08-29T15:00:26.692Z,23.00
2022-08-29T15:02:55.274Z,23.20
2022-08-29T15:05:23.973Z,23.00
2022-08-29T15:07:52.070Z,23.00
2022-08-29T15:10:22.518Z,23.00
2022-08-29T15:12:52.057Z,23.00
2022-08-29T15:15:28.315Z,22.90
2022-08-29T15:17:56.454Z,22.90
2022-08-29T15:20:36.217Z,22.90
2022-08-29T15:23:05.193Z,22.70
2022-08-29T15:25:33.330Z,22.60
2022-08-29T15:28:03.100Z,22.70
2022-08-29T15:30:31.175Z,22.70
2022-08-29T15:32:59.351Z,22.80
2022-08-29T15:35:27.521Z,22.70
2022-08-29T15:37:55.673Z,22.90
2022-08-29T15:40:24.261Z,22.90
2022-08-29T15:42:52.457Z,22.90
2022-08-29T15:45:22.809Z,22.90
2022-08-29T15:47:54.035Z,22.80
2022-08-29T15:50:23.708Z,22.80
2022-08-29T15:52:51.989Z,22.80
2022-08-29T15:55:20.092Z,22.70
2022-08-29T15:57:51.546Z,22.60
2022-08-29T16:00:30.261Z,22.60
2022-08-29T16:03:03.365Z,22.70
2022-08-29T16:05:32.594Z,22.70
2022-08-29T16:08:00.929Z,22.60
2022-08-29T16:10:29.594Z,22.50
2022-08-29T16:12:58.340Z,22.50
2022-08-29T16:15:30.947Z,22.50
2022-08-29T16:17:59.941Z,22.50
2022-08-29T16:20:28.479Z,22.60
2022-08-29T16:22:58.957Z,22.60
2022-08-29T16:25:28.582Z,22.50
2022-08-29T16:27:57.141Z,22.40
2022-08-29T16:30:27.157Z,22.20
2022-08-29T16:32:56.085Z,22.00
2022-08-29T16:35:25.196Z,21.80
2022-08-29T16:38:02.534Z,21.70
2022-08-29T16:40:32.530Z,21.60
2022-08-29T16:43:01.586Z,21.50
2022-08-29T16:45:33.418Z,21.40
2022-08-29T16:48:01.446Z,21.40
2022-08-29T16:50:32.332Z,21.30
2022-08-29T16:53:01.753Z,21.30
2022-08-29T16:55:30.489Z,21.30
2022-08-29T16:58:18.392Z,21.30
2022-08-29T17:00:47.817Z,21.30
2022-08-29T17:03:19.893Z,21.30
2022-08-29T17:05:48.796Z,21.40
2022-08-29T17:08:16.111Z,21.30
2022-08-29T17:10:43.827Z,21.30
2022-08-29T17:13:13.327Z,21.30
2022-08-29T17:15:40.589Z,21.30
2022-08-29T17:18:10.232Z,21.30
2022-08-29T17:20:38.410Z,21.30
2022-08-29T17:23:10.135Z,21.20
2022-08-29T17:25:39.061Z,21.30
2022-08-29T17:28:17.505Z,21.20
2022-08-29T17:30:53.386Z,21.10
2022-08-29T17:33:22.943Z,21.10
2022-08-29T17:35:51.164Z,21.00
2022-08-29T17:38:19.663Z,20.80
2022-08-29T17:40:48.949Z,20.70
2022-08-29T17:43:18.560Z,20.60
2022-08-29T17:45:47.108Z,20.60
2022-08-29T17:48:15.795Z,20.60
2022-08-29T17:50:45.706Z,20.60
2022-08-29T17:53:14.416Z,20.60
2022-08-29T17:55:42.638Z,20.60
2022-08-29T17:58:10.769Z,20.60
2022-08-29T18:00:39.271Z,20.60
2022-08-29T18:03:07.366Z,20.50
2022-08-29T18:05:35.536Z,20.40
2022-08-29T18:08:05.639Z,20.30
2022-08-29T18:10:33.845Z,20.20
2022-08-29T18:13:01.981Z,20.10
2022-08-29T18:15:30.031Z,20.20
2022-08-29T18:18:03.992Z,20.20
2022-08-29T18:20:32.107Z,20.10
2022-08-29T18:23:00.312Z,20.10
2022-08-29T18:25:29.882Z,20.00
2022-08-29T18:27:57.959Z,19.90
2022-08-29T18:30:26.192Z,19.80
2022-08-29T18:32:54.908Z,19.90
2022-08-29T18:35:23.509Z,19.80
2022-08-29T18:37:51.555Z,19.80
2022-08-29T18:40:19.933Z,19.80
2022-08-29T18:42:49.486Z,19.80
2022-08-29T18:45:18.024Z,19.70
2022-08-29T18:47:46.350Z,19.60
2022-08-29T18:50:32.474Z,19.60
2022-08-29T18:53:04.181Z,19.60
2022-08-29T18:55:35.994Z,19.50
2022-08-29T18:58:06.622Z,19.50
2022-08-29T19:00:35.555Z,19.50
2022-08-29T19:03:05.409Z,19.40
2022-08-29T19:05:36.900Z,19.40
2022-08-29T19:08:08.693Z,19.30
2022-08-29T19:10:36.982Z,19.30
2022-08-29T19:13:08.078Z,19.20
2022-08-29T19:15:41.449Z,19.20
2022-08-29T19:18:10.612Z,19.20
2022-08-29T19:20:56.054Z,19.30
2022-08-29T19:23:24.226Z,19.30
2022-08-29T19:25:52.440Z,19.20
2022-08-29T19:28:22.787Z,19.20
2022-08-29T19:30:52.278Z,19.20
2022-08-29T19:33:21.840Z,19.10
2022-08-29T19:35:51.409Z,19.00
2022-08-29T19:38:20.988Z,18.90
2022-08-29T19:40:54.186Z,18.90
2022-08-29T19:43:29.061Z,18.90
2022-08-29T19:45:58.075Z,19.00
2022-08-29T19:48:27.948Z,19.00
2022-08-29T19:50:56.886Z,19.00
2022-08-29T19:53:26.378Z,19.00
2022-08-29T19:55:57.892Z,18.90
2022-08-29T19:58:31.272Z,18.90
2022-08-29T20:01:03.135Z,18.90
2022-08-29T20:03:32.178Z,18.90
2022-08-29T20:06:00.464Z,18.70
2022-08-29T20:08:31.316Z,18.70
2022-08-29T20:10:59.727Z,18.70
2022-08-29T20:13:34.173Z,18.60
2022-08-29T20:16:10.905Z,18.60
2022-08-29T20:18:41.619Z,18.50
2022-08-29T20:21:10.436Z,18.40
2022-08-29T20:23:49.069Z,18.40
2022-08-29T20:26:19.237Z,18.40
2022-08-29T20:28:49.446Z,18.30
2022-08-29T20:31:17.603Z,18.20
2022-08-29T20:33:47.605Z,18.10
2022-08-29T20:36:33.991Z,18.10
2022-08-29T20:39:08.651Z,18.00
2022-08-29T20:41:37.118Z,17.90
2022-08-29T20:44:09.973Z,17.90
2022-08-29T20:46:43.374Z,17.90
2022-08-29T20:49:13.634Z,17.80
2022-08-29T20:51:44.596Z,17.80
2022-08-29T20:54:17.944Z,17.70
2022-08-29T20:56:46.372Z,17.70
2022-08-29T20:59:16.578Z,17.70
2022-08-29T21:01:44.998Z,17.60
2022-08-29T21:04:32.863Z,17.60
2022-08-29T21:07:03.067Z,17.60
2022-08-29T21:09:31.447Z,17.60
2022-08-29T21:12:00.032Z,17.60
2022-08-29T21:14:29.842Z,17.40
2022-08-29T21:16:59.026Z,17.40
2022-08-29T21:19:29.864Z,17.40
2022-08-29T21:21:59.310Z,17.30
2022-08-29T21:24:27.848Z,17.30
2022-08-29T21:26:58.823Z,17.30
2022-08-29T21:29:27.308Z,17.30
2022-08-29T21:31:57.523Z,17.20
2022-08-29T21:34:25.693Z,17.20
2022-08-29T21:36:54.367Z,17.20
2022-08-29T21:39:28.457Z,17.10
2022-08-29T21:41:57.925Z,17.10
2022-08-29T21:44:29.620Z,17.10
2022-08-29T21:46:59.097Z,17.10
2022-08-29T21:49:27.309Z,17.00
2022-08-29T21:51:56.066Z,17.00
2022-08-29T21:54:24.066Z,17.00
2022-08-29T21:57:06.145Z,16.90
2022-08-29T21:59:42.445Z,16.90
2022-08-29T22:02:17.462Z,16.90
2022-08-29T22:04:48.195Z,16.80
2022-08-29T22:07:16.188Z,16.80
2022-08-29T22:09:48.008Z,16.80
2022-08-29T22:12:16.455Z,16.80
2022-08-29T22:15:01.930Z,16.70
2022-08-29T22:17:32.575Z,16.70
2022-08-29T22:20:00.634Z,16.70
2022-08-29T22:22:28.727Z,16.70
2022-08-29T22:24:59.919Z,16.70
2022-08-29T22:27:27.994Z,16.60
2022-08-29T22:29:58.302Z,16.60
2022-08-29T22:32:32.264Z,16.60
2022-08-29T22:35:07.252Z,16.60
2022-08-29T22:37:36.904Z,16.50
2022-08-29T22:40:07.186Z,16.60
2022-08-29T22:42:35.535Z,16.60
2022-08-29T22:45:04.407Z,16.60
2022-08-29T22:47:32.850Z,16.60
2022-08-29T22:50:00.939Z,16.60
2022-08-29T22:52:30.442Z,16.60
2022-08-29T22:54:58.803Z,16.60
2022-08-29T22:57:26.851Z,16.60
2022-08-29T22:59:54.859Z,16.60
2022-08-29T23:02:23.071Z,16.50
2022-08-29T23:04:52.025Z,16.50
2022-08-29T23:07:21.417Z,16.60
2022-08-29T23:09:51.553Z,16.60
2022-08-29T23:12:20.445Z,16.60
2022-08-29T23:14:49.337Z,16.60
2022-08-29T23:17:19.942Z,16.60
2022-08-29T23:19:49.922Z,16.60
2022-08-29T23:22:18.128Z,16.60
2022-08-29T23:24:58.292Z,16.60
2022-08-29T23:27:29.628Z,16.60
2022-08-29T23:29:58.689Z,16.60
2022-08-29T23:32:28.382Z,16.70
2022-08-29T23:34:56.881Z,16.70
2022-08-29T23:37:25.365Z,16.60
2022-08-29T23:39:54.280Z,16.60
2022-08-29T23:42:25.741Z,16.60
2022-08-29T23:44:55.321Z,16.50
2022-08-29T23:47:23.700Z,16.50
2022-08-29T23:49:51.733Z,16.40
2022-08-29T23:52:19.769Z,16.40
2022-08-29T23:54:47.823Z,16.40
2022-08-29T23:57:16.055Z,16.40
